createdAt,value
2023-04-18T00:01:01.953Z,8.48
2023-04-18T00:03:30.277Z,8.65
2023-04-18T00:05:58.122Z,8.35
2023-04-18T00:08:25.470Z,8.65
2023-04-18T00:10:54.207Z,8.70
2023-04-18T00:13:21.552Z,8.57
2023-04-18T00:15:48.879Z,8.35
2023-04-18T00:18:17.476Z,8.52
2023-04-18T00:20:46.181Z,8.25
2023-04-18T00:23:16.602Z,8.13
2023-04-18T00:25:43.829Z,8.27
2023-04-18T00:28:11.062Z,8.13
2023-04-18T00:30:38.515Z,8.30
2023-04-18T00:33:06.404Z,8.30
2023-04-18T00:35:33.722Z,10.00
2023-04-18T00:38:00.985Z,11.55
2023-04-18T00:40:28.249Z,10.75
2023-04-18T00:42:55.614Z,9.57
2023-04-18T00:45:23.087Z,9.68
2023-04-18T00:47:50.361Z,9.10
2023-04-18T00:50:18.151Z,9.50
2023-04-18T00:52:45.745Z,8.93
2023-04-18T00:55:13.252Z,8.63
2023-04-18T00:57:41.281Z,8.43
2023-04-18T01:00:10.140Z,8.57
2023-04-18T01:02:38.274Z,8.73
2023-04-18T01:05:06.247Z,8.02
2023-04-18T01:07:34.100Z,8.23
2023-04-18T01:10:02.448Z,8.43
2023-04-18T01:12:29.692Z,8.18
2023-04-18T01:14:57.356Z,8.18
2023-04-18T01:17:24.732Z,8.95
2023-04-18T01:19:52.027Z,7.88
2023-04-18T01:22:20.563Z,8.43
2023-04-18T01:24:47.861Z,8.93
2023-04-18T01:27:15.197Z,7.82
2023-04-18T01:29:42.476Z,8.13
2023-04-18T01:32:09.735Z,8.48
2023-04-18T01:34:36.981Z,9.55
2023-04-18T01:37:04.266Z,8.27
2023-04-18T01:39:31.534Z,9.18
2023-04-18T01:41:58.846Z,10.05
2023-04-18T01:44:26.427Z,10.93
2023-04-18T01:46:53.921Z,10.35
2023-04-18T01:49:21.270Z,10.02
2023-04-18T01:51:48.619Z,9.82
2023-04-18T01:54:16.222Z,9.57
2023-04-18T01:56:43.755Z,9.57
2023-04-18T01:59:11.025Z,9.27
2023-04-18T02:01:38.277Z,10.60
2023-04-18T02:04:05.609Z,10.05
2023-04-18T02:06:32.940Z,9.70
2023-04-18T02:09:00.569Z,9.38
2023-04-18T02:11:27.870Z,9.25
2023-04-18T02:13:55.227Z,10.60
2023-04-18T02:16:22.525Z,10.25
2023-04-18T02:18:52.692Z,9.43
2023-04-18T02:21:20.042Z,10.30
2023-04-18T02:23:47.290Z,9.65
2023-04-18T02:26:14.591Z,10.55
2023-04-18T02:28:41.960Z,11.15
2023-04-18T02:31:14.729Z,11.98
2023-04-18T02:33:43.294Z,13.05
2023-04-18T02:36:10.826Z,13.35
2023-04-18T02:38:38.073Z,13.70
2023-04-18T02:41:05.595Z,13.80
2023-04-18T02:43:33.647Z,14.27
2023-04-18T02:46:00.936Z,13.93
2023-04-18T02:48:28.248Z,14.70
2023-04-18T02:51:02.282Z,15.23
2023-04-18T02:53:32.140Z,15.07
2023-04-18T02:55:59.445Z,15.07
2023-04-18T02:58:27.681Z,14.43
2023-04-18T03:00:55.881Z,16.38
2023-04-18T03:03:23.229Z,17.55
2023-04-18T03:05:50.560Z,16.42
2023-04-18T03:08:17.888Z,16.08
2023-04-18T03:10:45.289Z,15.55
2023-04-18T03:13:12.551Z,15.73
2023-04-18T03:15:39.881Z,16.00
2023-04-18T03:18:07.286Z,15.77
2023-04-18T03:20:34.755Z,16.02
2023-04-18T03:23:02.120Z,15.45
2023-04-18T03:25:29.363Z,15.50
2023-04-18T03:27:56.647Z,14.93
2023-04-18T03:30:24.036Z,14.20
2023-04-18T03:32:52.999Z,15.30
2023-04-18T03:35:20.890Z,15.35
2023-04-18T03:37:48.192Z,15.38
2023-04-18T03:40:15.419Z,15.15
2023-04-18T03:42:43.351Z,15.82
2023-04-18T03:45:10.936Z,13.90
2023-04-18T03:47:38.330Z,15.15
2023-04-18T03:50:06.027Z,15.60
2023-04-18T03:52:34.639Z,14.82
2023-04-18T03:55:01.914Z,15.27
2023-04-18T03:57:29.170Z,15.20
2023-04-18T03:59:56.661Z,15.07
2023-04-18T04:02:24.052Z,15.52
2023-04-18T04:04:51.623Z,15.25
2023-04-18T04:07:18.921Z,15.80
2023-04-18T04:09:46.165Z,15.98
2023-04-18T04:12:13.401Z,15.27
2023-04-18T04:14:40.755Z,15.60
2023-04-18T04:17:08.064Z,15.10
2023-04-18T04:19:35.505Z,15.55
2023-04-18T04:22:02.774Z,15.95
2023-04-18T04:24:30.870Z,15.05
2023-04-18T04:26:58.939Z,15.07
2023-04-18T04:29:26.915Z,14.80
2023-04-18T04:31:54.226Z,14.98
2023-04-18T04:34:21.840Z,14.20
2023-04-18T04:36:49.302Z,14.27
2023-04-18T04:39:17.523Z,14.07
2023-04-18T04:41:44.799Z,13.63
2023-04-18T04:44:12.499Z,13.93
2023-04-18T04:46:40.487Z,14.02
2023-04-18T04:49:08.095Z,14.32
2023-04-18T04:51:35.902Z,14.05
2023-04-18T04:54:03.233Z,13.50
2023-04-18T04:56:30.723Z,14.30
2023-04-18T04:58:57.993Z,14.27
2023-04-18T05:01:25.285Z,13.73
2023-04-18T05:03:52.841Z,13.20
2023-04-18T05:06:22.573Z,13.00
2023-04-18T05:08:50.600Z,13.00
2023-04-18T05:11:17.943Z,13.25
2023-04-18T05:13:45.312Z,12.35
2023-04-18T05:16:12.602Z,12.52
2023-04-18T05:18:41.478Z,13.27
2023-04-18T05:21:08.773Z,11.82
2023-04-18T05:23:37.186Z,11.98
2023-04-18T05:26:05.151Z,11.57
2023-04-18T05:28:35.331Z,11.18
2023-04-18T05:31:02.783Z,11.23
2023-04-18T05:33:30.870Z,10.48
2023-04-18T05:35:58.633Z,10.93
2023-04-18T05:38:26.160Z,10.40
2023-04-18T05:40:55.732Z,10.70
2023-04-18T05:43:23.534Z,11.00
2023-04-18T05:45:52.633Z,10.43
2023-04-18T05:48:20.286Z,9.80
2023-04-18T05:50:47.575Z,10.63
2023-04-18T05:53:14.859Z,11.93
2023-04-18T05:55:42.216Z,9.70
2023-04-18T05:58:09.486Z,10.30
2023-04-18T06:00:36.832Z,9.95
2023-04-18T06:03:04.291Z,10.98
2023-04-18T06:05:32.124Z,9.80
2023-04-18T06:07:59.486Z,9.50
2023-04-18T06:10:26.922Z,10.55
2023-04-18T06:12:54.362Z,10.75
2023-04-18T06:15:21.611Z,9.20
2023-04-18T06:17:48.925Z,10.02
2023-04-18T06:20:16.265Z,9.20
2023-04-18T06:22:43.781Z,8.30
2023-04-18T06:25:11.118Z,8.70
2023-04-18T06:27:38.783Z,8.40
2023-04-18T06:30:07.788Z,8.75
2023-04-18T06:32:35.499Z,8.38
2023-04-18T06:35:02.905Z,8.07
2023-04-18T06:37:30.287Z,8.30
2023-04-18T06:39:57.578Z,8.63
2023-04-18T06:42:24.900Z,8.93
2023-04-18T06:44:52.193Z,8.90
2023-04-18T06:47:19.486Z,9.38
2023-04-18T06:49:46.863Z,9.85
2023-04-18T06:52:14.187Z,7.35
2023-04-18T06:54:41.439Z,7.50
2023-04-18T06:57:08.747Z,6.80
2023-04-18T06:59:37.475Z,7.00
2023-04-18T07:02:04.802Z,7.10
2023-04-18T07:04:32.203Z,6.68
2023-04-18T07:06:59.743Z,6.22
2023-04-18T07:09:27.135Z,5.22
2023-04-18T07:11:54.383Z,4.90
2023-04-18T07:14:25.324Z,5.25
2023-04-18T07:16:52.710Z,5.47
2023-04-18T07:19:20.170Z,5.38
2023-04-18T07:21:47.593Z,5.15
2023-04-18T07:24:15.124Z,5.20
2023-04-18T07:26:42.515Z,5.25
2023-04-18T07:29:09.782Z,4.60
2023-04-18T07:31:37.118Z,4.70
2023-04-18T07:34:04.863Z,5.20
2023-04-18T07:36:32.675Z,4.95
2023-04-18T07:38:59.941Z,4.72
2023-04-18T07:41:27.289Z,4.80
2023-04-18T07:43:54.633Z,4.97
2023-04-18T07:46:21.973Z,4.57
2023-04-18T07:48:49.306Z,5.30
2023-04-18T07:51:16.577Z,4.40
2023-04-18T07:53:51.290Z,4.70
2023-04-18T07:56:18.563Z,4.50
2023-04-18T07:58:45.843Z,5.03
2023-04-18T08:01:15.323Z,5.00
2023-04-18T08:03:42.806Z,4.70
2023-04-18T08:06:10.246Z,4.80
2023-04-18T08:08:37.525Z,5.45
2023-04-18T08:11:04.838Z,6.43
2023-04-18T08:13:32.134Z,5.68
2023-04-18T08:16:00.310Z,5.47
2023-04-18T08:18:27.648Z,4.90
2023-04-18T08:20:55.352Z,5.32
2023-04-18T08:23:22.852Z,5.28
2023-04-18T08:25:51.059Z,4.70
2023-04-18T08:28:18.462Z,5.38
2023-04-18T08:30:49.434Z,5.60
2023-04-18T08:33:19.553Z,5.43
2023-04-18T08:35:46.876Z,5.28
2023-04-18T08:38:14.805Z,5.05
2023-04-18T08:40:42.184Z,5.07
2023-04-18T08:43:09.636Z,5.35
2023-04-18T08:45:37.073Z,5.63
2023-04-18T08:48:04.498Z,5.47
2023-04-18T08:50:32.457Z,6.60
2023-04-18T08:53:01.251Z,5.43
2023-04-18T08:55:28.576Z,5.10
2023-04-18T08:57:58.590Z,5.40
2023-04-18T09:00:27.565Z,4.90
2023-04-18T09:02:57.084Z,4.63
2023-04-18T09:05:25.400Z,3.90
2023-04-18T09:07:53.597Z,4.05
2023-04-18T09:10:32.669Z,4.13
2023-04-18T09:13:01.079Z,3.83
2023-04-18T09:15:29.284Z,3.40
2023-04-18T09:18:01.755Z,3.17
2023-04-18T09:20:34.605Z,3.30
2023-04-18T09:23:03.977Z,3.47
2023-04-18T09:25:34.575Z,3.40
2023-04-18T09:28:05.664Z,2.85
2023-04-18T09:33:01.634Z,2.95
2023-04-18T09:35:29.083Z,3.00
2023-04-18T09:37:56.362Z,3.10
2023-04-18T09:40:24.208Z,3.38
2023-04-18T09:42:53.256Z,2.80
2023-04-18T09:45:20.574Z,3.20
2023-04-18T09:47:47.914Z,3.33
2023-04-18T09:50:16.931Z,3.33
2023-04-18T09:52:44.506Z,3.80
2023-04-18T09:55:13.112Z,3.75
2023-04-18T09:57:40.865Z,4.20
2023-04-18T10:00:17.511Z,4.65
2023-04-18T10:02:53.585Z,4.68
2023-04-18T10:05:21.992Z,4.70
2023-04-18T10:07:50.736Z,5.38
2023-04-18T10:10:18.533Z,5.75
2023-04-18T10:12:48.092Z,5.22
2023-04-18T10:15:16.159Z,5.30
2023-04-18T10:18:03.381Z,5.80
2023-04-18T10:20:32.815Z,5.75
2023-04-18T10:23:00.618Z,5.53
2023-04-18T10:25:39.976Z,5.35
2023-04-18T10:28:08.206Z,5.32
2023-04-18T10:30:41.637Z,5.28
2023-04-18T10:33:30.293Z,5.60
2023-04-18T10:36:00.247Z,5.10
2023-04-18T10:38:27.607Z,4.97
2023-04-18T10:41:13.235Z,5.10
2023-04-18T10:44:18.333Z,5.65
2023-04-18T10:46:48.915Z,5.10
2023-04-18T10:49:17.589Z,5.25
2023-04-18T10:51:46.016Z,5.00
2023-04-18T10:54:32.188Z,5.10
2023-04-18T10:57:00.320Z,5.50
2023-04-18T10:59:27.581Z,5.35
2023-04-18T11:01:58.646Z,5.30
2023-04-18T11:07:00.479Z,5.63
2023-04-18T11:09:27.737Z,5.40
2023-04-18T11:12:24.586Z,5.63
2023-04-18T11:14:52.904Z,5.03
2023-04-18T11:17:20.254Z,5.07
2023-04-18T11:19:47.935Z,5.18
2023-04-18T11:22:18.126Z,5.38
2023-04-18T11:24:45.756Z,5.22
2023-04-18T11:27:13.876Z,4.47
2023-04-18T11:29:41.301Z,4.65
2023-04-18T11:32:11.052Z,3.80
2023-04-18T11:34:38.393Z,3.65
2023-04-18T11:37:08.687Z,3.85
2023-04-18T11:39:41.650Z,3.60
2023-04-18T11:42:09.787Z,3.35
2023-04-18T11:44:39.836Z,3.53
2023-04-18T11:47:27.553Z,4.00
2023-04-18T11:50:01.017Z,3.67
2023-04-18T11:52:29.582Z,3.20
2023-04-18T11:54:57.537Z,3.40
2023-04-18T11:57:26.003Z,3.10
2023-04-18T11:59:54.164Z,3.30
2023-04-18T12:02:22.544Z,3.45
2023-04-18T12:05:00.416Z,3.38
2023-04-18T12:07:46.267Z,3.50
2023-04-18T12:10:23.410Z,3.22
2023-04-18T12:12:51.740Z,3.28
2023-04-18T12:15:19.852Z,3.38
2023-04-18T12:20:24.903Z,3.13
2023-04-18T12:22:54.294Z,3.22
2023-04-18T12:25:25.265Z,3.10
2023-04-18T12:28:02.495Z,3.50
2023-04-18T12:30:31.016Z,3.42
2023-04-18T12:33:04.546Z,3.30
2023-04-18T12:35:32.389Z,3.03
2023-04-18T12:38:01.389Z,3.13
2023-04-18T12:40:29.524Z,3.50
2023-04-18T12:42:57.177Z,3.08
2023-04-18T12:45:24.936Z,3.17
2023-04-18T12:47:53.591Z,2.90
2023-04-18T12:50:22.507Z,2.78
2023-04-18T12:52:50.440Z,2.90
2023-04-18T12:55:17.727Z,3.10
2023-04-18T12:57:45.199Z,3.20
2023-04-18T13:00:13.680Z,3.35
2023-04-18T13:02:42.641Z,3.00
2023-04-18T13:05:11.015Z,3.35
2023-04-18T13:07:40.567Z,2.63
2023-04-18T13:10:09.194Z,2.85
2023-04-18T13:12:37.374Z,3.17
2023-04-18T13:15:05.402Z,3.17
2023-04-18T13:17:33.701Z,3.22
2023-04-18T13:20:01.923Z,3.58
2023-04-18T13:22:30.969Z,3.08
2023-04-18T13:24:58.349Z,3.05
2023-04-18T13:27:25.749Z,3.00
2023-04-18T13:29:53.171Z,2.88
2023-04-18T13:32:20.742Z,3.35
2023-04-18T13:34:48.958Z,3.00
2023-04-18T13:37:16.536Z,3.38
2023-04-18T13:39:43.812Z,3.03
2023-04-18T13:42:11.096Z,3.08
2023-04-18T13:44:38.731Z,3.20
2023-04-18T13:47:06.685Z,2.97
2023-04-18T13:49:34.623Z,3.13
2023-04-18T13:52:01.935Z,2.67
2023-04-18T13:54:30.072Z,2.95
2023-04-18T13:56:57.926Z,2.83
2023-04-18T13:59:25.843Z,3.10
2023-04-18T14:01:54.450Z,3.38
2023-04-18T14:04:22.630Z,2.90
2023-04-18T14:06:50.604Z,2.83
2023-04-18T14:09:18.159Z,2.72
2023-04-18T14:11:45.936Z,2.53
2023-04-18T14:14:13.236Z,2.78
2023-04-18T14:16:40.658Z,2.75
2023-04-18T14:19:07.918Z,2.70
2023-04-18T14:21:35.927Z,2.30
2023-04-18T14:24:03.865Z,2.70
2023-04-18T14:26:31.115Z,2.40
2023-04-18T14:28:58.364Z,2.92
2023-04-18T14:31:28.198Z,2.58
2023-04-18T14:33:55.526Z,2.58
2023-04-18T14:36:22.749Z,2.60
2023-04-18T14:38:50.532Z,2.47
2023-04-18T14:41:17.870Z,2.88
2023-04-18T14:43:45.116Z,2.63
2023-04-18T14:46:19.119Z,2.38
2023-04-18T14:48:49.102Z,2.63
2023-04-18T14:51:16.978Z,5.55
2023-04-18T14:53:44.949Z,3.15
2023-04-18T14:56:12.491Z,3.10
2023-04-18T14:58:39.740Z,3.30
2023-04-18T15:01:07.154Z,3.40
2023-04-18T15:03:34.712Z,3.45
2023-04-18T15:06:02.310Z,3.58
2023-04-18T15:08:32.766Z,3.00
2023-04-18T15:11:01.156Z,2.97
2023-04-18T15:13:28.463Z,3.40
2023-04-18T15:15:56.925Z,3.08
2023-04-18T15:18:24.293Z,3.42
2023-04-18T15:20:52.136Z,3.10
2023-04-18T15:23:19.479Z,3.28
2023-04-18T15:25:46.969Z,2.78
2023-04-18T15:28:14.672Z,2.90
2023-04-18T15:30:41.994Z,3.15
2023-04-18T15:33:09.401Z,3.03
2023-04-18T15:35:36.668Z,2.65
2023-04-18T15:38:04.302Z,2.75
2023-04-18T15:40:33.126Z,2.67
2023-04-18T15:43:00.548Z,2.53
2023-04-18T15:45:28.076Z,2.92
2023-04-18T15:47:55.366Z,2.78
2023-04-18T15:50:24.544Z,3.03
2023-04-18T15:52:51.807Z,3.03
2023-04-18T15:55:19.188Z,3.03
2023-04-18T15:57:46.542Z,3.00
2023-04-18T16:00:17.718Z,3.95
2023-04-18T16:05:12.883Z,3.30
2023-04-18T16:07:40.734Z,2.85
2023-04-18T16:10:12.821Z,2.88
2023-04-18T16:12:40.770Z,3.70
2023-04-18T16:15:09.065Z,3.45
2023-04-18T16:17:36.923Z,3.60
2023-04-18T16:20:06.164Z,3.55
2023-04-18T16:22:33.588Z,3.13
2023-04-18T16:25:00.874Z,3.20
2023-04-18T16:27:28.577Z,3.53
2023-04-18T16:29:55.943Z,3.03
2023-04-18T16:32:23.250Z,3.65
2023-04-18T16:34:50.752Z,4.07
2023-04-18T16:37:18.001Z,3.60
2023-04-18T16:39:45.367Z,3.35
2023-04-18T16:42:15.362Z,3.58
2023-04-18T16:44:44.819Z,3.58
2023-04-18T16:47:12.174Z,3.63
2023-04-18T16:49:39.544Z,4.10
2023-04-18T16:52:06.789Z,3.53
2023-04-18T16:54:34.197Z,4.00
2023-04-18T16:57:01.843Z,3.63
2023-04-18T16:59:29.140Z,3.80
2023-04-18T17:01:56.534Z,3.53
2023-04-18T17:04:26.904Z,2.80
2023-04-18T17:06:54.369Z,3.70
2023-04-18T17:09:21.787Z,3.40
2023-04-18T17:11:49.133Z,3.78
2023-04-18T17:14:17.579Z,3.40
2023-04-18T17:16:45.037Z,3.40
2023-04-18T17:19:12.575Z,3.80
2023-04-18T17:21:39.951Z,4.15
2023-04-18T17:24:07.764Z,4.18
2023-04-18T17:26:35.795Z,4.03
2023-04-18T17:29:06.621Z,5.20
2023-04-18T17:31:34.218Z,4.30
2023-04-18T17:34:03.509Z,4.32
2023-04-18T17:36:30.800Z,4.80
2023-04-18T17:39:05.413Z,8.05
2023-04-18T17:41:36.805Z,5.80
2023-04-18T17:44:04.429Z,4.80
2023-04-18T17:46:32.695Z,4.07
2023-04-18T17:49:00.605Z,3.88
2023-04-18T17:54:10.967Z,4.90
2023-04-18T17:56:38.536Z,3.80
2023-04-18T17:59:13.985Z,4.03
2023-04-18T18:01:41.680Z,3.60
2023-04-18T18:04:18.434Z,4.00
2023-04-18T18:06:56.702Z,4.30
2023-04-18T18:09:25.283Z,3.80
2023-04-18T18:11:59.060Z,4.35
2023-04-18T18:14:28.277Z,4.03
2023-04-18T18:16:56.228Z,4.00
2023-04-18T18:19:23.804Z,4.18
2023-04-18T18:21:51.368Z,4.25
2023-04-18T18:24:21.004Z,4.85
2023-04-18T18:26:51.497Z,5.93
2023-04-18T18:29:19.727Z,6.15
2023-04-18T18:31:47.781Z,5.20
2023-04-18T18:34:21.398Z,5.00
2023-04-18T18:36:57.354Z,4.55
2023-04-18T18:39:25.560Z,4.55
2023-04-18T18:41:53.200Z,4.35
2023-04-18T18:44:21.332Z,4.57
2023-04-18T18:46:51.119Z,4.53
2023-04-18T18:49:18.629Z,4.70
2023-04-18T18:51:49.484Z,4.53
2023-04-18T18:54:16.899Z,4.50
2023-04-18T18:56:45.373Z,4.70
2023-04-18T18:59:13.196Z,4.32
2023-04-18T19:01:40.856Z,4.30
2023-04-18T19:04:08.491Z,4.05
2023-04-18T19:06:36.324Z,4.35
2023-04-18T19:09:05.281Z,4.88
2023-04-18T19:11:34.161Z,4.30
2023-04-18T19:14:01.536Z,3.63
2023-04-18T19:16:30.264Z,4.00
2023-04-18T19:18:57.605Z,3.38
2023-04-18T19:21:25.019Z,4.28
2023-04-18T19:23:52.588Z,3.75
2023-04-18T19:26:20.122Z,3.47
2023-04-18T19:28:47.640Z,4.10
2023-04-18T19:31:14.965Z,3.28
2023-04-18T19:33:42.411Z,4.10
2023-04-18T19:36:09.890Z,3.55
2023-04-18T19:38:37.448Z,3.90
2023-04-18T19:41:04.827Z,3.60
2023-04-18T19:43:34.394Z,3.78
2023-04-18T19:46:01.657Z,3.45
2023-04-18T19:48:29.050Z,3.38
2023-04-18T19:50:57.295Z,3.47
2023-04-18T19:53:24.644Z,3.28
2023-04-18T19:55:52.071Z,3.50
2023-04-18T19:58:35.799Z,3.95
2023-04-18T20:01:06.008Z,2.63
2023-04-18T20:03:34.381Z,3.13
2023-04-18T20:06:02.479Z,2.90
2023-04-18T20:08:31.964Z,2.85
2023-04-18T20:11:02.208Z,2.90
2023-04-18T20:13:29.735Z,3.07
2023-04-18T20:15:57.155Z,3.20
2023-04-18T20:18:25.836Z,3.00
2023-04-18T20:20:53.254Z,2.97
2023-04-18T20:23:20.764Z,2.80
2023-04-18T20:25:48.510Z,2.63
2023-04-18T20:28:17.666Z,2.88
2023-04-18T20:30:47.482Z,2.90
2023-04-18T20:33:14.862Z,2.40
2023-04-18T20:35:44.565Z,3.25
2023-04-18T20:38:17.430Z,2.63
2023-04-18T20:40:45.082Z,3.20
2023-04-18T20:43:13.613Z,2.72
2023-04-18T20:45:44.994Z,3.00
2023-04-18T20:48:12.820Z,2.50
2023-04-18T20:50:40.274Z,2.65
2023-04-18T20:53:13.551Z,2.60
2023-04-18T20:55:40.944Z,3.00
2023-04-18T20:58:08.476Z,2.78
2023-04-18T21:00:35.967Z,2.45
2023-04-18T21:03:03.608Z,2.75
2023-04-18T21:05:31.738Z,2.45
2023-04-18T21:08:00.059Z,2.53
2023-04-18T21:10:38.079Z,2.30
2023-04-18T21:13:05.479Z,2.35
2023-04-18T21:15:32.828Z,2.13
2023-04-18T21:18:00.222Z,2.58
2023-04-18T21:20:27.634Z,2.38
2023-04-18T21:22:55.044Z,2.65
2023-04-18T21:25:22.352Z,2.70
2023-04-18T21:27:50.839Z,2.45
2023-04-18T21:30:18.217Z,2.33
2023-04-18T21:32:47.322Z,2.33
2023-04-18T21:35:16.049Z,2.47
2023-04-18T21:37:44.570Z,2.70
2023-04-18T21:40:11.980Z,2.25
2023-04-18T21:42:39.301Z,2.20
2023-04-18T21:45:06.805Z,2.35
2023-04-18T21:47:34.175Z,2.20
2023-04-18T21:50:01.606Z,2.20
2023-04-18T21:52:28.861Z,2.22
2023-04-18T21:54:56.256Z,2.42
2023-04-18T21:57:23.617Z,1.92
2023-04-18T21:59:50.906Z,2.10
2023-04-18T22:02:18.267Z,1.95
2023-04-18T22:04:45.555Z,2.30
2023-04-18T22:07:13.574Z,1.85
2023-04-18T22:09:40.868Z,2.40
2023-04-18T22:12:08.922Z,2.10
2023-04-18T22:14:36.222Z,2.10
2023-04-18T22:17:04.890Z,2.25
2023-04-18T22:19:32.574Z,2.30
2023-04-18T22:21:59.870Z,2.13
2023-04-18T22:24:27.116Z,2.47
2023-04-18T22:26:54.519Z,2.58
2023-04-18T22:29:21.943Z,2.10
2023-04-18T22:31:49.183Z,2.28
2023-04-18T22:34:16.665Z,2.45
2023-04-18T22:36:45.685Z,2.25
2023-04-18T22:39:12.970Z,1.88
2023-04-18T22:41:40.469Z,2.08
2023-04-18T22:44:07.799Z,2.22
2023-04-18T22:46:35.230Z,2.50
2023-04-18T22:49:02.642Z,2.22
2023-04-18T22:51:29.871Z,2.00
2023-04-18T22:53:57.328Z,1.98
2023-04-18T22:56:24.677Z,2.78
2023-04-18T22:58:51.931Z,2.30
2023-04-18T23:01:19.193Z,2.50
2023-04-18T23:03:46.679Z,2.30
2023-04-18T23:06:14.006Z,2.15
2023-04-18T23:08:41.257Z,2.30
2023-04-18T23:11:08.640Z,1.90
2023-04-18T23:13:35.894Z,2.13
2023-04-18T23:16:03.180Z,2.20
2023-04-18T23:18:30.985Z,2.00
2023-04-18T23:20:58.208Z,1.92
2023-04-18T23:23:25.489Z,2.20
2023-04-18T23:25:52.884Z,1.88
2023-04-18T23:28:20.292Z,2.13
2023-04-18T23:30:48.258Z,2.25
2023-04-18T23:33:15.574Z,2.15
2023-04-18T23:35:43.309Z,2.20
2023-04-18T23:38:10.647Z,2.10
2023-04-18T23:40:37.996Z,2.20
2023-04-18T23:43:05.235Z,2.35
2023-04-18T23:45:32.548Z,2.15
2023-04-18T23:47:59.973Z,1.98
2023-04-18T23:50:27.273Z,2.33
2023-04-18T23:52:54.654Z,2.60
2023-04-18T23:55:21.940Z,2.00
2023-04-18T23:57:49.231Z,1.95
